Ship Status Report: callsign FAB5302

sailwx.info

Track history (hours):
 
Tides and Currents Weather Stations Pressure Air Temp Water Temp Dewpoint Dewpoint Depression Visibility Wind Speed Wind Dir Waves Ship Positions

Callsign FAB5302 (name unknown)

Last reported at 2018-Mar-02 09:25 UTC. Time now 2018-Jun-25 03:54 UTC.
Position S 05°13' E 011°29'.
Warning: this ship's position is months out of date.

Date/timePositionNaut miles runAvg speedWind from/ knotsBaromVisibWave heightAir tempDewpointWater temp
2018-Mar-02 09:25S 05°13' E 011°29'819.8
2018-Mar-02 09:00S 05°20' E 011°24'4 7.2
2018-Mar-02 08:30S 05°17' E 011°27'9 0.5
2018-Mar-01 13:53S 05°09' E 011°31'820.5
2018-Mar-01 13:30S 05°15' E 011°26'3 6.1
2018-Mar-01 13:00S 05°17' E 011°23'12 2.7
2018-Mar-01 08:23S 05°09' E 011°32'820.3
2018-Mar-01 08:00S 05°15' E 011°28'611.9
2018-Mar-01 07:30S 05°20' E 011°24'918.8
2018-Mar-01 07:00S 05°12' E 011°29'12 0.6
2018-Feb-28 11:07S 05°02' E 011°36'219.1
2018-Feb-28 11:00S 05°04' E 011°34'1019.7
2018-Feb-28 10:30S 05°12' E 011°29'713.2
2018-Feb-28 09:59S 05°18' E 011°25'2 4.3
2018-Feb-28 09:30S 05°20' E 011°24'3 6.3
2018-Feb-28 08:59S 05°17' E 011°26'918.7
2018-Feb-28 08:30S 05°10' E 011°32'5 0.2
2018-Feb-27 10:18S 05°06' E 011°32'619.9
2018-Feb-27 10:00S 05°11' E 011°29'612.5
2018-Feb-27 09:30S 05°15' E 011°25'2 4.4
2018-Feb-27 08:59S 05°17' E 011°23'4 9.0
2018-Feb-27 08:30S 05°14' E 011°26'918.6
2018-Feb-27 08:00S 05°07' E 011°32'6 0.1
2018-Feb-25 11:07S 05°07' E 011°39'323.1
2018-Feb-25 11:00S 05°10' E 011°37'815.2
2018-Feb-25 10:29S 05°16' E 011°34'1 1.8
2018-Feb-25 10:00S 05°16' E 011°35'0 0.1
2018-Feb-25 09:29S 05°16' E 011°35'0 0.0
2018-Feb-25 08:58S 05°16' E 011°35'1 1.8
2018-Feb-25 08:29S 05°16' E 011°34'8 0.2
2018-Feb-23 09:19S 05°09' E 011°31'719.4
2018-Feb-23 08:58S 05°15' E 011°27'613.6
2018-Feb-23 08:30S 05°20' E 011°24'1020.0
2018-Feb-23 08:00S 05°12' E 011°30'9 0.5
2018-Feb-22 13:57S 05°04' E 011°35'1224.8
2018-Feb-22 13:29S 05°13' E 011°27'612.2
2018-Feb-22 13:01S 05°17' E 011°23'1120.6
2018-Feb-22 12:30S 05°09' E 011°31'7 1.8
2018-Feb-22 08:45S 05°04' E 011°35'724.6
2018-Feb-22 08:29S 05°10' E 011°31'1224.2
2018-Feb-22 08:00S 05°19' E 011°24'4 8.4
2018-Feb-22 07:30S 05°16' E 011°27'1020.0
2018-Feb-22 07:00S 05°08' E 011°33'6 0.3
2018-Feb-21 09:54S 05°02' E 011°36'921.2
2018-Feb-21 09:28S 05°09' E 011°30'1020.9
2018-Feb-21 09:00S 05°17' E 011°24'2 4.9
2018-Feb-21 08:29S 05°19' E 011°24'1222.7
2018-Feb-21 07:58S 05°10' E 011°31'9 0.4
2018-Feb-20 10:11S 05°03' E 011°36'420.1
2018-Feb-20 09:59S 05°06' E 011°33'1019.4
2018-Feb-20 09:30S 05°13' E 011°27'  
Track history (hours):
 
Tides and Currents Weather Stations Pressure Air Temp Water Temp Dewpoint Dewpoint Depression Visibility Wind Speed Wind Dir Waves Ship Positions

Callsign FAB5302 (name unknown)

Last reported at 2018-Mar-02 09:25 UTC. Time now 2018-Jun-25 03:54 UTC.
Position S 05°13' E 011°29'.
Warning: this ship's position is months out of date.

Date/timePositionNaut miles runAvg speedWind from/ knotsBaromVisibWave heightAir tempDewpointWater temp
2018-Mar-02 09:25S 05°13' E 011°29'819.8
2018-Mar-02 09:00S 05°20' E 011°24'4 7.2
2018-Mar-02 08:30S 05°17' E 011°27'9 0.5
2018-Mar-01 13:53S 05°09' E 011°31'820.5
2018-Mar-01 13:30S 05°15' E 011°26'3 6.1
2018-Mar-01 13:00S 05°17' E 011°23'12 2.7
2018-Mar-01 08:23S 05°09' E 011°32'820.3
2018-Mar-01 08:00S 05°15' E 011°28'611.9
2018-Mar-01 07:30S 05°20' E 011°24'918.8
2018-Mar-01 07:00S 05°12' E 011°29'12 0.6
2018-Feb-28 11:07S 05°02' E 011°36'219.1
2018-Feb-28 11:00S 05°04' E 011°34'1019.7
2018-Feb-28 10:30S 05°12' E 011°29'713.2
2018-Feb-28 09:59S 05°18' E 011°25'2 4.3
2018-Feb-28 09:30S 05°20' E 011°24'3 6.3
2018-Feb-28 08:59S 05°17' E 011°26'918.7
2018-Feb-28 08:30S 05°10' E 011°32'5 0.2
2018-Feb-27 10:18S 05°06' E 011°32'619.9
2018-Feb-27 10:00S 05°11' E 011°29'612.5
2018-Feb-27 09:30S 05°15' E 011°25'2 4.4
2018-Feb-27 08:59S 05°17' E 011°23'4 9.0
2018-Feb-27 08:30S 05°14' E 011°26'918.6
2018-Feb-27 08:00S 05°07' E 011°32'6 0.1
2018-Feb-25 11:07S 05°07' E 011°39'323.1
2018-Feb-25 11:00S 05°10' E 011°37'815.2
2018-Feb-25 10:29S 05°16' E 011°34'1 1.8
2018-Feb-25 10:00S 05°16' E 011°35'0 0.1
2018-Feb-25 09:29S 05°16' E 011°35'0 0.0
2018-Feb-25 08:58S 05°16' E 011°35'1 1.8
2018-Feb-25 08:29S 05°16' E 011°34'8 0.2
2018-Feb-23 09:19S 05°09' E 011°31'719.4
2018-Feb-23 08:58S 05°15' E 011°27'613.6
2018-Feb-23 08:30S 05°20' E 011°24'1020.0
2018-Feb-23 08:00S 05°12' E 011°30'9 0.5
2018-Feb-22 13:57S 05°04' E 011°35'1224.8
2018-Feb-22 13:29S 05°13' E 011°27'612.2
2018-Feb-22 13:01S 05°17' E 011°23'1120.6
2018-Feb-22 12:30S 05°09' E 011°31'7 1.8
2018-Feb-22 08:45S 05°04' E 011°35'724.6
2018-Feb-22 08:29S 05°10' E 011°31'1224.2
2018-Feb-22 08:00S 05°19' E 011°24'4 8.4
2018-Feb-22 07:30S 05°16' E 011°27'1020.0
2018-Feb-22 07:00S 05°08' E 011°33'6 0.3
2018-Feb-21 09:54S 05°02' E 011°36'921.2
2018-Feb-21 09:28S 05°09' E 011°30'1020.9
2018-Feb-21 09:00S 05°17' E 011°24'2 4.9
2018-Feb-21 08:29S 05°19' E 011°24'1222.7
2018-Feb-21 07:58S 05°10' E 011°31'9 0.4
2018-Feb-20 10:11S 05°03' E 011°36'420.1
2018-Feb-20 09:59S 05°06' E 011°33'1019.4
2018-Feb-20 09:30S 05°13' E 011°27'  

Dump ship's entire track history